This is the latest recevied weather packets stored in our database for station/object OK1VCF-5. If no packets are shown the sender has not sent any weather packets the latest 10 day(s).
| Time | Temp. | Humidity | Pressure | Rain* | Wind** | Luminosity | Snow |
|---|---|---|---|---|---|---|---|
| 1777576140 | 7.22° C | 52% | 1033.4 hPa | - | - | - | - |
| 1777575238 | 7.78° C | 50% | 1033.2 hPa | - | - | - | - |
| 1777574338 | 8.33° C | 48% | 1033 hPa | - | - | - | - |
| 1777573435 | 8.89° C | 47% | 1032.8 hPa | - | - | - | - |
| 1777572537 | 10° C | 45% | 1032.6 hPa | - | - | - | - |
| 1777571635 | 10° C | 44% | 1032.4 hPa | - | - | - | - |
| 1777570737 | 11.11° C | - | - | - | - | - | - |
| 1777570734 | 11.11° C | 40% | 1032.3 hPa | - | - | - | - |
| 1777569835 | 12.22° C | 36% | 1032.4 hPa | - | - | - | - |
| 1777569834 | 12.22° C | 36% | 1032.4 hPa | - | - | - | - |
| 1777568933 | 13.33° C | 35% | 1032.2 hPa | - | - | - | - |
| 1777568032 | 13.33° C | 34% | 1032.4 hPa | - | - | - | - |
| 1777567130 | 14.44° C | 34% | 1032.3 hPa | - | - | - | - |
| 1777566231 | 14.44° C | 31% | 1032.3 hPa | - | - | - | - |
| 1777565333 | 14.44° C | 30% | 1032.6 hPa | - | - | - | - |
| 1777563527 | 15.56° C | 30% | 1032.6 hPa | - | - | - | - |
| 1777562627 | 15.56° C | 30% | 1032.6 hPa | - | - | - | - |
| 1777561727 | 15.56° C | 28% | 1032.8 hPa | - | - | - | - |
| 1777560824 | 15.56° C | 26% | 1032.9 hPa | - | - | - | - |
| 1777559927 | 15.56° C | 27% | 1033 hPa | - | - | - | - |
| 1777559023 | 16.11° C | 26% | 1033 hPa | - | - | - | - |
| 1777558124 | 16.11° C | 26% | 1033.1 hPa | - | - | - | - |
| 1777557258 | 16.67° C | 24% | 1033.2 hPa | - | - | - | - |
| 1777557223 | 16.67° C | 24% | 1033.2 hPa | - | - | - | - |
| 1777556322 | 16.67° C | 26% | 1033.4 hPa | - | - | - | - |
* Rain since midnight (hover to see other rain measurements)
** Current wind speed in m/s (hover to see current wind gust speed)